Time;durP1;ratioP1;P1;durP2;ratioP2;P2;SDS_P1;SDS_P2;PMS_P1;PMS_P2;Temp;Humidity;BMP_temperature;BMP_pressure;BME280_temperature;BME280_humidity;BME280_pressure;Samples;Min_cycle;Max_cycle;Signal;HPM_P1;HPM_P2
2022/09/27 00:02:10;;;;;;;16.23;11.67;;;8.20;99.90;;;;;;8385039;28;20196;-70
2022/09/27 00:06:17;;;;;;;16.40;12.43;;;8.30;99.90;;;;;;8383222;28;20223;-68
2022/09/27 00:10:18;;;;;;;17.83;12.73;;;8.20;99.90;;;;;;8379208;28;20189;-68
2022/09/27 00:14:19;;;;;;;14.63;11.57;;;8.30;99.90;;;;;;8380779;28;20247;-68
2022/09/27 00:18:22;;;;;;;13.60;11.17;;;8.30;99.90;;;;;;8384073;28;20517;-68
2022/09/27 00:22:24;;;;;;;14.67;11.40;;;8.30;99.90;;;;;;8382106;28;20197;-69
2022/09/27 00:26:26;;;;;;;14.33;10.97;;;8.40;99.90;;;;;;8382241;28;20231;-67
2022/09/27 00:30:28;;;;;;;13.50;10.00;;;8.50;99.90;;;;;;8379235;28;20517;-68
2022/09/27 00:34:28;;;;;;;14.10;10.33;;;8.50;99.90;;;;;;8381227;28;20189;-67
2022/09/27 00:38:29;;;;;;;11.67;10.47;;;8.50;99.90;;;;;;8382517;28;20212;-69
2022/09/27 00:42:30;;;;;;;13.40;11.57;;;8.60;99.90;;;;;;8380308;28;20267;-68
2022/09/27 00:47:11;;;;;;;12.17;10.50;;;8.60;99.90;;;;;;8379895;28;20185;-69
2022/09/27 00:51:12;;;;;;;9.33;8.43;;;8.60;99.90;;;;;;8378329;28;20205;-67
2022/09/27 00:55:17;;;;;;;10.37;8.07;;;8.40;99.90;;;;;;8380717;28;20185;-67
2022/09/27 00:59:33;;;;;;;10.93;8.83;;;8.30;99.90;;;;;;8386584;28;20212;-68
2022/09/27 01:03:44;;;;;;;13.90;10.03;;;8.30;99.90;;;;;;8379729;28;20185;-68
2022/09/27 01:07:45;;;;;;;11.40;9.13;;;8.30;99.90;;;;;;8381150;28;20192;-68
2022/09/27 01:12:23;;;;;;;12.40;9.63;;;8.30;99.90;;;;;;8380515;28;20289;-67
2022/09/27 01:16:36;;;;;;;13.90;9.87;;;8.30;99.90;;;;;;8382010;28;20201;-68
2022/09/27 01:20:48;;;;;;;13.03;10.60;;;8.20;99.90;;;;;;8382645;28;20208;-68
2022/09/27 01:24:57;;;;;;;10.20;8.97;;;8.30;99.90;;;;;;8395560;28;20284;-68
2022/09/27 01:29:12;;;;;;;10.83;8.43;;;8.20;99.90;;;;;;8386658;28;20248;-67
2022/09/27 01:33:20;;;;;;;10.33;8.50;;;8.20;99.90;;;;;;8379730;28;20178;-67
2022/09/27 01:37:35;;;;;;;10.97;9.47;;;8.10;99.90;;;;;;8382753;28;20185;-67
2022/09/27 01:42:03;;;;;;;9.23;7.87;;;8.10;99.90;;;;;;8371190;28;20182;-67
2022/09/27 01:46:10;;;;;;;8.23;7.27;;;8.10;99.90;;;;;;8378823;28;20188;-67
2022/09/27 01:50:17;;;;;;;8.20;7.40;;;8.00;99.90;;;;;;8377459;28;20550;-67
2022/09/27 01:54:22;;;;;;;8.73;7.33;;;7.90;99.90;;;;;;8380306;28;20265;-68
2022/09/27 01:58:31;;;;;;;10.03;6.97;;;7.80;99.90;;;;;;8379742;28;20209;-68
2022/09/27 02:02:42;;;;;;;10.43;7.97;;;7.80;99.90;;;;;;8379371;28;20177;-67
2022/09/27 02:06:47;;;;;;;12.17;10.00;;;7.90;99.90;;;;;;8378990;28;20206;-67
2022/09/27 02:10:50;;;;;;;11.40;9.47;;;8.10;99.90;;;;;;8382547;28;20192;-67
2022/09/27 02:15:04;;;;;;;10.03;8.97;;;8.30;99.90;;;;;;8378768;28;20240;-67
2022/09/27 02:19:05;;;;;;;11.30;8.97;;;8.50;99.90;;;;;;8381396;28;20221;-67
2022/09/27 02:23:05;;;;;;;10.37;8.83;;;8.50;99.90;;;;;;8375674;28;20177;-66
2022/09/27 02:27:13;;;;;;;14.27;9.53;;;8.60;99.90;;;;;;8380018;28;20192;-68
2022/09/27 02:31:14;;;;;;;10.50;9.13;;;8.70;99.90;;;;;;8378961;28;20193;-68
2022/09/27 02:35:21;;;;;;;9.57;8.30;;;8.80;99.90;;;;;;8382312;28;20192;-68
2022/09/27 02:39:22;;;;;;;8.53;7.63;;;8.80;99.90;;;;;;8380169;28;20213;-67
2022/09/27 02:43:27;;;;;;;12.37;8.60;;;8.80;99.90;;;;;;8377816;28;20188;-67
2022/09/27 02:47:43;;;;;;;11.40;8.27;;;8.80;99.90;;;;;;8394172;28;20177;-66
2022/09/27 02:51:56;;;;;;;11.10;8.27;;;8.80;99.90;;;;;;8382686;28;20173;-68
2022/09/27 02:56:09;;;;;;;9.63;7.97;;;8.80;99.90;;;;;;8379802;28;20189;-68
2022/09/27 03:00:16;;;;;;;10.90;8.10;;;8.90;99.90;;;;;;8379227;28;20202;-68
2022/09/27 03:04:33;;;;;;;9.53;7.93;;;8.90;99.90;;;;;;8392162;28;20588;-68
2022/09/27 03:08:37;;;;;;;9.53;7.70;;;8.90;99.90;;;;;;8387934;28;20197;-68
2022/09/27 03:12:38;;;;;;;12.47;8.30;;;9.00;99.90;;;;;;8398014;28;20247;-69
2022/09/27 03:16:38;;;;;;;9.10;7.53;;;9.00;99.90;;;;;;8387073;28;20307;-68
2022/09/27 03:20:39;;;;;;;8.40;7.60;;;9.00;99.90;;;;;;8384570;28;20208;-69
2022/09/27 03:24:40;;;;;;;10.00;8.60;;;9.00;99.90;;;;;;8381840;28;20212;-67
2022/09/27 03:28:41;;;;;;;13.00;7.50;;;9.00;99.90;;;;;;8384053;28;20190;-69
2022/09/27 03:32:43;;;;;;;8.70;7.80;;;9.00;99.90;;;;;;8385176;28;20192;-68
2022/09/27 03:36:44;;;;;;;8.03;6.77;;;9.00;99.90;;;;;;8381970;28;20642;-68
2022/09/27 03:40:45;;;;;;;8.17;7.03;;;9.00;99.90;;;;;;8380832;28;20205;-68
2022/09/27 03:44:46;;;;;;;11.03;7.17;;;9.00;99.90;;;;;;8387354;28;20268;-68
2022/09/27 03:48:47;;;;;;;10.73;7.30;;;9.00;99.90;;;;;;8384689;28;20177;-67
2022/09/27 03:52:47;;;;;;;8.40;6.93;;;9.00;99.90;;;;;;8384222;28;20185;-69
2022/09/27 03:56:48;;;;;;;6.60;5.90;;;9.00;99.90;;;;;;8382858;28;20189;-68
2022/09/27 04:00:49;;;;;;;8.10;6.50;;;9.00;99.90;;;;;;8383696;28;20264;-68
2022/09/27 04:04:50;;;;;;;8.73;6.90;;;9.00;99.90;;;;;;8382429;28;20193;-68
2022/09/27 04:08:50;;;;;;;9.77;7.33;;;9.10;99.90;;;;;;8386117;28;20195;-68
2022/09/27 04:12:51;;;;;;;8.87;7.33;;;9.10;99.90;;;;;;8382374;28;20229;-69
2022/09/27 04:16:52;;;;;;;10.23;7.20;;;9.10;99.90;;;;;;8381094;28;20208;-69
2022/09/27 04:20:53;;;;;;;7.60;6.67;;;9.00;99.90;;;;;;8376942;28;20216;-68
2022/09/27 04:24:54;;;;;;;7.43;6.23;;;9.00;99.90;;;;;;8381920;28;20185;-67
2022/09/27 04:28:54;;;;;;;7.70;6.90;;;9.00;99.90;;;;;;8385969;28;20193;-67
2022/09/27 04:32:55;;;;;;;7.83;6.33;;;9.00;99.90;;;;;;8383525;28;20184;-67
2022/09/27 04:36:56;;;;;;;7.60;6.90;;;8.90;99.90;;;;;;8385872;28;20223;-69
2022/09/27 04:41:00;;;;;;;7.67;6.97;;;8.90;99.90;;;;;;8383695;28;20212;-68
2022/09/27 04:45:00;;;;;;;8.00;6.20;;;8.90;99.90;;;;;;8378546;28;20184;-68
2022/09/27 04:49:01;;;;;;;8.90;7.00;;;8.80;99.90;;;;;;8384472;28;20188;-68
2022/09/27 04:53:03;;;;;;;8.27;7.47;;;8.80;99.90;;;;;;8381275;28;20212;-68
2022/09/27 04:57:04;;;;;;;7.80;7.00;;;8.70;99.90;;;;;;8379782;28;20197;-67
2022/09/27 05:01:06;;;;;;;7.90;6.93;;;8.70;99.90;;;;;;8381305;28;20208;-68
2022/09/27 05:05:07;;;;;;;8.00;6.67;;;8.60;99.90;;;;;;8381216;28;20200;-67
2022/09/27 05:09:08;;;;;;;11.20;7.73;;;8.70;99.90;;;;;;8380906;28;20180;-67
2022/09/27 05:13:09;;;;;;;11.33;8.63;;;8.70;99.90;;;;;;8378596;28;20209;-70
2022/09/27 05:17:09;;;;;;;9.63;8.63;;;8.80;99.90;;;;;;8382043;28;20195;-67
2022/09/27 05:21:11;;;;;;;10.40;8.93;;;8.90;99.90;;;;;;8379231;28;20233;-68
2022/09/27 05:25:12;;;;;;;8.23;7.43;;;9.00;99.90;;;;;;8379973;28;20184;-67
2022/09/27 05:29:13;;;;;;;10.67;8.70;;;9.00;99.90;;;;;;8377629;28;20185;-68
2022/09/27 05:33:14;;;;;;;10.57;8.43;;;9.10;99.90;;;;;;8382307;28;20323;-67
2022/09/27 05:37:18;;;;;;;9.13;8.23;;;9.10;99.90;;;;;;8381396;28;20185;-67
2022/09/27 05:41:19;;;;;;;10.30;7.87;;;9.10;99.90;;;;;;8379415;28;20232;-67
2022/09/27 05:45:21;;;;;;;10.03;9.03;;;9.20;99.90;;;;;;8381644;28;20180;-67
2022/09/27 05:49:22;;;;;;;9.00;7.07;;;9.20;99.90;;;;;;8383455;28;20407;-68
2022/09/27 05:53:24;;;;;;;8.03;6.60;;;9.20;99.90;;;;;;8380391;28;20187;-68
2022/09/27 05:57:24;;;;;;;6.70;6.10;;;9.30;99.90;;;;;;8381976;28;20188;-69
2022/09/27 06:01:26;;;;;;;7.53;6.40;;;9.40;99.90;;;;;;8381109;28;20219;-68
2022/09/27 06:05:29;;;;;;;7.73;6.93;;;9.50;99.90;;;;;;8379000;28;20212;-68
2022/09/27 06:09:30;;;;;;;6.67;6.03;;;9.60;99.90;;;;;;8380072;28;20213;-68
2022/09/27 06:13:38;;;;;;;10.17;8.40;;;9.70;99.90;;;;;;8379150;28;20240;-69
2022/09/27 06:17:39;;;;;;;9.83;8.17;;;9.80;99.90;;;;;;8381172;28;20191;-68
2022/09/27 06:21:39;;;;;;;14.90;9.53;;;9.80;99.90;;;;;;8375943;28;20214;-68
2022/09/27 06:25:41;;;;;;;13.80;9.33;;;9.80;99.90;;;;;;8377988;28;20191;-69
2022/09/27 06:29:42;;;;;;;10.03;9.00;;;9.90;99.90;;;;;;8369620;28;20182;-69
2022/09/27 06:33:43;;;;;;;10.87;9.67;;;9.90;99.90;;;;;;8378405;28;20593;-70
2022/09/27 06:37:44;;;;;;;12.40;10.57;;;10.00;99.90;;;;;;8379719;28;20261;-68
2022/09/27 06:41:44;;;;;;;11.20;9.87;;;10.10;99.90;;;;;;8383743;28;20218;-68
2022/09/27 06:45:46;;;;;;;14.23;9.97;;;10.20;99.90;;;;;;8381784;28;20182;-68
2022/09/27 06:49:46;;;;;;;13.07;10.17;;;10.20;99.90;;;;;;8383631;28;20189;-69
2022/09/27 06:53:47;;;;;;;12.40;10.27;;;10.30;99.90;;;;;;8384970;28;20183;-68
2022/09/27 07:02:08;;;;;;;12.37;9.33;;;10.40;99.90;;;;;;8383318;28;20281;-69
2022/09/27 07:06:17;;;;;;;9.83;8.20;;;10.50;99.90;;;;;;8387392;28;20208;-68
2022/09/27 07:10:18;;;;;;;10.67;9.23;;;10.50;99.90;;;;;;8383812;28;20216;-68
2022/09/27 07:14:19;;;;;;;9.43;8.43;;;10.70;99.90;;;;;;8379888;28;20222;-69
2022/09/27 07:18:20;;;;;;;9.17;7.63;;;10.70;99.90;;;;;;8381805;28;20203;-69
2022/09/27 07:22:21;;;;;;;9.30;8.33;;;10.80;99.90;;;;;;8381172;28;20194;-69
2022/09/27 07:26:22;;;;;;;9.93;8.93;;;10.80;99.90;;;;;;8384210;28;20293;-69
2022/09/27 07:30:23;;;;;;;8.37;7.30;;;10.80;99.90;;;;;;8383816;28;20188;-70
2022/09/27 07:34:24;;;;;;;9.20;8.17;;;10.80;99.90;;;;;;8381926;28;20222;-69
2022/09/27 07:38:25;;;;;;;8.83;7.73;;;10.80;99.90;;;;;;8383089;28;20209;-67
2022/09/27 07:42:27;;;;;;;9.13;8.10;;;10.80;99.90;;;;;;8384819;28;20196;-69
2022/09/27 07:46:29;;;;;;;9.43;7.50;;;10.80;99.90;;;;;;8389254;28;20248;-69
2022/09/27 07:50:30;;;;;;;7.60;6.77;;;10.90;99.90;;;;;;8383449;28;20183;-68
2022/09/27 07:54:32;;;;;;;8.90;7.13;;;10.90;99.90;;;;;;8384004;28;20239;-70
2022/09/27 07:58:32;;;;;;;9.17;7.20;;;10.90;99.90;;;;;;8384520;28;20724;-69
2022/09/27 08:02:36;;;;;;;8.33;7.33;;;11.00;99.90;;;;;;8381039;28;20179;-68
2022/09/27 08:06:37;;;;;;;7.40;6.70;;;11.00;99.90;;;;;;8382782;28;20234;-69
2022/09/27 08:10:43;;;;;;;7.63;6.83;;;11.00;99.90;;;;;;8385078;28;20227;-68
2022/09/27 08:14:43;;;;;;;7.60;6.37;;;11.00;99.90;;;;;;8384625;28;20222;-69
2022/09/27 08:18:44;;;;;;;9.80;6.90;;;11.10;99.90;;;;;;8378702;28;20204;-68
2022/09/27 08:22:45;;;;;;;7.07;6.37;;;11.20;99.90;;;;;;8383233;28;20245;-68
2022/09/27 08:26:46;;;;;;;6.43;5.80;;;11.30;99.90;;;;;;8384485;28;20191;-69
2022/09/27 08:30:48;;;;;;;8.30;6.77;;;11.40;99.90;;;;;;8382999;28;20203;-68
2022/09/27 08:34:49;;;;;;;8.43;6.50;;;11.50;99.90;;;;;;8376187;28;20248;-68
2022/09/27 08:38:51;;;;;;;6.70;5.77;;;11.70;99.90;;;;;;8383296;28;20205;-67
2022/09/27 08:43:20;;;;;;;6.80;5.63;;;11.80;99.90;;;;;;8397624;28;20181;-69
2022/09/27 08:47:39;;;;;;;7.23;4.73;;;12.00;99.90;;;;;;8377562;28;20177;-68
2022/09/27 08:51:41;;;;;;;5.60;4.70;;;12.20;99.90;;;;;;8378717;28;20247;-67
2022/09/27 08:55:51;;;;;;;6.87;4.53;;;12.20;99.90;;;;;;8378434;28;20185;-68
2022/09/27 09:00:10;;;;;;;6.70;4.93;;;12.30;99.90;;;;;;8382620;28;20205;-69
2022/09/27 09:04:14;;;;;;;7.10;4.50;;;12.40;99.90;;;;;;8395289;28;20189;-68
2022/09/27 09:08:35;;;;;;;6.17;4.47;;;12.50;99.90;;;;;;8381064;28;20189;-68
2022/09/27 09:13:07;;;;;;;7.37;4.50;;;12.70;99.90;;;;;;8378945;28;20235;-68
2022/09/27 09:17:23;;;;;;;7.13;3.93;;;12.90;99.90;;;;;;8379181;28;20204;-67
2022/09/27 09:21:31;;;;;;;4.90;3.83;;;13.20;99.90;;;;;;8381473;28;20296;-68
2022/09/27 09:25:57;;;;;;;3.80;3.43;;;13.50;99.90;;;;;;8397034;28;20189;-68
2022/09/27 09:30:06;;;;;;;3.23;2.70;;;13.80;99.90;;;;;;8380504;28;20234;-68
2022/09/27 09:34:19;;;;;;;3.83;3.00;;;13.90;99.90;;;;;;8382374;28;20217;-67
2022/09/27 09:38:33;;;;;;;3.63;2.63;;;13.80;99.90;;;;;;8385367;28;20347;-68
2022/09/27 09:42:44;;;;;;;3.77;2.80;;;13.80;1.00;;;;;;8379530;28;20235;-68
2022/09/27 09:46:50;;;;;;;3.63;2.90;;;13.60;1.00;;;;;;8394044;28;20186;-68
2022/09/27 09:50:55;;;;;;;3.27;2.70;;;13.50;1.00;;;;;;8379351;28;20223;-67
2022/09/27 09:55:12;;;;;;;2.90;2.40;;;13.30;22.70;;;;;;8381615;28;20197;-68
2022/09/27 09:59:19;;;;;;;3.47;3.17;;;13.30;63.90;;;;;;8381575;28;20212;-68
2022/09/27 10:03:21;;;;;;;3.40;3.10;;;13.50;4.20;;;;;;8393805;28;20182;-68
2022/09/27 10:07:24;;;;;;;3.33;3.03;;;13.70;1.00;;;;;;8386488;28;20276;-69
2022/09/27 10:11:28;;;;;;;3.57;3.00;;;13.90;99.90;;;;;;8376946;28;20210;-69
2022/09/27 10:15:30;;;;;;;3.47;2.97;;;14.00;99.90;;;;;;8388595;28;20200;-68
2022/09/27 10:19:33;;;;;;;3.07;2.53;;;14.40;99.90;;;;;;8386170;28;20208;-69
2022/09/27 10:23:34;;;;;;;5.23;2.60;;;14.80;99.90;;;;;;8388525;28;20188;-68
2022/09/27 10:27:42;;;;;;;2.97;2.63;;;15.20;15.90;;;;;;8386082;28;20185;-69
2022/09/27 10:31:46;;;;;;;2.63;2.40;;;15.40;1.00;;;;;;8383844;28;20224;-68
2022/09/27 10:35:49;;;;;;;3.30;3.00;;;15.60;1.00;;;;;;8386494;28;20190;-69
2022/09/27 10:39:51;;;;;;;2.93;2.40;;;15.50;1.00;;;;;;8382442;28;20236;-67
2022/09/27 10:43:52;;;;;;;2.93;2.23;;;15.50;1.00;;;;;;8384101;28;20186;-69
2022/09/27 10:47:53;;;;;;;2.70;1.90;;;15.40;1.00;;;;;;8381015;28;20185;-68
2022/09/27 10:52:26;;;;;;;6.50;1.70;;;15.20;1.00;;;;;;8385174;28;20230;-69
2022/09/27 10:56:33;;;;;;;2.10;1.50;;;15.30;1.00;;;;;;8382837;28;20199;-67
2022/09/27 11:00:36;;;;;;;1.80;1.40;;;15.40;1.00;;;;;;8386283;28;20205;-67
2022/09/27 11:04:37;;;;;;;2.20;1.00;;;15.50;1.00;;;;;;8382129;28;20186;-69
2022/09/27 11:08:39;;;;;;;0.83;0.60;;;15.70;99.90;;;;;;8385719;28;20189;-67
2022/09/27 11:12:40;;;;;;;0.83;0.70;;;15.80;99.90;;;;;;8383732;28;20212;-67
2022/09/27 11:17:03;;;;;;;1.10;0.60;;;15.70;99.90;;;;;;8383575;28;20208;-68
2022/09/27 11:21:51;;;;;;;0.73;0.50;;;15.60;99.90;;;;;;8384628;28;20514;-68
2022/09/27 11:26:13;;;;;;;1.00;0.60;;;15.50;99.90;;;;;;8384766;28;20472;-67
2022/09/27 11:30:18;;;;;;;0.90;0.70;;;15.70;99.90;;;;;;8382237;28;20192;-67
2022/09/27 11:34:28;;;;;;;1.47;0.40;;;15.90;99.90;;;;;;8401210;28;20276;-69
2022/09/27 11:38:52;;;;;;;0.90;0.70;;;16.20;99.90;;;;;;8385097;28;20308;-67
2022/09/27 11:43:30;;;;;;;0.90;0.50;;;16.30;99.90;;;;;;8375067;28;20189;-68
2022/09/27 11:48:06;;;;;;;0.67;0.47;;;16.30;99.90;;;;;;8382421;28;20177;-68
2022/09/27 11:52:15;;;;;;;0.60;0.50;;;16.40;99.90;;;;;;8286652;28;20189;-68
2022/09/27 11:56:22;;;;;;;1.93;0.70;;;16.40;99.90;;;;;;8386682;28;20190;-68
2022/09/27 12:00:31;;;;;;;1.33;0.50;;;16.40;99.90;;;;;;8383712;28;20236;-69
2022/09/27 12:05:00;;;;;;;0.90;0.53;;;16.40;99.90;;;;;;8383781;28;20189;-69
2022/09/27 12:09:08;;;;;;;0.50;0.50;;;16.30;99.90;;;;;;8381893;28;20243;-69
2022/09/27 12:13:13;;;;;;;2.10;0.40;;;16.50;99.90;;;;;;8381514;28;20193;-68
2022/09/27 12:17:20;;;;;;;1.00;0.50;;;16.80;99.90;;;;;;8386773;28;20210;-69
2022/09/27 12:21:21;;;;;;;0.70;0.30;;;16.80;99.90;;;;;;8380281;28;20258;-68
2022/09/27 12:25:26;;;;;;;1.23;0.60;;;16.60;99.90;;;;;;8386655;28;20192;-68
2022/09/27 12:29:32;;;;;;;1.00;0.50;;;16.30;99.90;;;;;;8401205;28;20276;-67
2022/09/27 12:34:02;;;;;;;0.60;0.40;;;16.20;99.90;;;;;;8383867;28;20223;-68
2022/09/27 12:38:17;;;;;;;1.13;0.50;;;16.20;99.90;;;;;;8345701;28;20196;-69
2022/09/27 12:42:24;;;;;;;1.50;0.70;;;16.30;99.90;;;;;;8373892;28;20185;-68
2022/09/27 12:46:51;;;;;;;0.60;0.40;;;16.50;99.90;;;;;;8381912;28;20215;-68
2022/09/27 12:51:09;;;;;;;0.70;0.50;;;16.60;99.90;;;;;;8372071;28;20192;-69
2022/09/27 12:55:40;;;;;;;0.50;0.50;;;16.60;99.90;;;;;;8374995;28;20190;-69
2022/09/27 12:59:54;;;;;;;0.73;0.30;;;16.70;99.90;;;;;;8385051;28;20212;-68
2022/09/27 13:04:26;;;;;;;1.60;0.70;;;16.80;99.90;;;;;;8378119;28;20193;-68
2022/09/27 13:08:53;;;;;;;1.30;0.90;;;16.70;99.90;;;;;;8376621;28;20224;-68
2022/09/27 13:12:56;;;;;;;1.17;0.77;;;16.60;99.90;;;;;;8373076;28;20208;-69
2022/09/27 13:16:56;;;;;;;1.03;0.80;;;16.40;99.90;;;;;;8380721;28;20204;-68
2022/09/27 13:20:57;;;;;;;0.90;0.60;;;16.20;99.90;;;;;;8380354;28;20208;-69
2022/09/27 13:24:58;;;;;;;1.67;0.57;;;16.20;99.90;;;;;;8381747;28;20242;-68
2022/09/27 13:29:02;;;;;;;1.13;0.80;;;16.00;99.90;;;;;;8382213;28;20185;-68
2022/09/27 13:33:09;;;;;;;1.13;0.63;;;15.80;99.90;;;;;;8382726;28;20189;-68
2022/09/27 13:37:30;;;;;;;1.63;0.80;;;15.30;99.90;;;;;;8375160;28;20188;-67
2022/09/27 13:42:14;;;;;;;0.73;0.30;;;14.40;1.00;;;;;;8374581;28;20293;-69
2022/09/27 13:46:21;;;;;;;0.60;0.30;;;12.90;88.60;;;;;;8374023;28;20252;-67
2022/09/27 13:50:28;;;;;;;2.40;0.30;;;11.80;99.90;;;;;;8376952;28;20204;-68
2022/09/27 13:54:51;;;;;;;0.77;0.50;;;11.30;1.00;;;;;;8380345;28;20187;-69
2022/09/27 13:59:01;;;;;;;0.40;0.30;;;11.10;99.90;;;;;;8380573;28;20202;-70
2022/09/27 14:03:16;;;;;;;1.67;0.40;;;11.20;1.00;;;;;;8369953;28;20208;-69
2022/09/27 14:07:24;;;;;;;0.70;0.20;;;11.30;1.00;;;;;;8377558;28;20180;-70
2022/09/27 14:11:41;;;;;;;1.37;0.50;;;11.40;43.70;;;;;;8392775;28;20192;-69
2022/09/27 14:15:44;;;;;;;0.80;0.30;;;11.60;1.00;;;;;;8375188;28;20293;-70
2022/09/27 14:19:46;;;;;;;0.93;0.40;;;11.90;99.90;;;;;;8379235;28;20208;-69
2022/09/27 14:23:47;;;;;;;1.17;0.63;;;12.10;99.90;;;;;;8377613;28;20217;-68
2022/09/27 14:27:48;;;;;;;1.57;0.60;;;12.20;1.00;;;;;;8378022;28;20188;-68
2022/09/27 14:32:09;;;;;;;1.10;0.43;;;12.20;99.90;;;;;;8373405;28;20185;-69
2022/09/27 14:41:01;;;;;;;1.43;0.70;;;12.20;99.90;;;;;;8379815;28;20303;-69
2022/09/27 14:45:50;;;;;;;1.30;0.50;;;12.10;99.90;;;;;;8379302;28;20199;-70
2022/09/27 14:49:52;;;;;;;1.67;0.60;;;11.90;99.90;;;;;;8390295;28;20195;-69
2022/09/27 14:54:00;;;;;;;0.93;0.63;;;11.90;1.00;;;;;;8376886;28;20185;-70
2022/09/27 14:58:03;;;;;;;1.57;0.90;;;11.90;99.90;;;;;;8379044;28;20192;-69
2022/09/27 15:02:17;;;;;;;2.10;0.80;;;12.10;99.90;;;;;;8383088;28;20255;-69
2022/09/27 15:06:19;;;;;;;2.53;1.33;;;12.20;99.90;;;;;;8381307;28;20200;-67
2022/09/27 15:10:22;;;;;;;2.40;1.23;;;12.30;1.00;;;;;;8384415;28;20185;-69
2022/09/27 15:14:23;;;;;;;2.07;1.40;;;12.40;99.90;;;;;;8383410;28;20340;-69
2022/09/27 15:18:46;;;;;;;3.10;1.07;;;12.40;99.90;;;;;;8384033;28;20192;-68
2022/09/27 15:22:47;;;;;;;3.67;1.40;;;12.30;99.90;;;;;;8383789;28;20218;-68
2022/09/27 15:26:51;;;;;;;1.70;1.30;;;12.10;99.90;;;;;;8386298;28;20259;-68
2022/09/27 15:30:57;;;;;;;2.73;1.23;;;11.90;1.00;;;;;;8381435;28;20288;-67
2022/09/27 15:35:06;;;;;;;1.63;0.87;;;11.80;1.00;;;;;;8399587;28;20232;-68
2022/09/27 15:39:12;;;;;;;3.50;0.90;;;11.70;99.90;;;;;;8398488;28;20213;-68
2022/09/27 15:43:31;;;;;;;3.43;1.03;;;11.70;1.00;;;;;;8386971;28;20219;-68
2022/09/27 15:47:35;;;;;;;1.90;1.07;;;11.70;1.00;;;;;;8397794;28;20189;-68
2022/09/27 15:51:42;;;;;;;2.90;1.70;;;11.80;1.00;;;;;;8379983;28;20181;-67
2022/09/27 15:55:44;;;;;;;2.23;1.83;;;11.90;99.90;;;;;;8387708;28;20209;-68
2022/09/27 15:59:44;;;;;;;2.43;1.67;;;11.80;19.00;;;;;;8382844;28;20246;-67
2022/09/27 16:03:46;;;;;;;2.00;1.67;;;11.80;1.00;;;;;;8380887;28;20188;-68
2022/09/27 16:07:46;;;;;;;3.70;1.90;;;11.80;33.50;;;;;;8383262;28;20221;-67
2022/09/27 16:11:49;;;;;;;1.93;1.50;;;11.80;99.90;;;;;;8382581;28;20243;-68
2022/09/27 16:15:50;;;;;;;2.90;1.73;;;12.00;1.00;;;;;;8382160;28;20204;-68
2022/09/27 16:19:51;;;;;;;2.40;1.77;;;12.10;99.90;;;;;;8382440;28;20204;-68
2022/09/27 16:23:52;;;;;;;3.33;2.00;;;12.00;99.90;;;;;;8381479;28;20214;-67
2022/09/27 16:28:03;;;;;;;2.70;1.87;;;11.80;1.00;;;;;;8379672;28;20185;-68
2022/09/27 16:32:07;;;;;;;3.10;1.90;;;11.60;7.60;;;;;;8373706;28;20192;-68
2022/09/27 16:36:15;;;;;;;2.97;2.30;;;11.40;1.00;;;;;;8382997;28;20212;-67
2022/09/27 16:40:17;;;;;;;4.07;2.00;;;11.20;99.90;;;;;;8386593;28;20216;-67
2022/09/27 16:44:18;;;;;;;2.27;1.70;;;11.10;99.90;;;;;;8381900;28;20299;-67
2022/09/27 16:48:19;;;;;;;3.80;1.97;;;10.90;99.90;;;;;;8378653;28;20180;-68
2022/09/27 16:52:20;;;;;;;2.63;1.80;;;10.60;1.00;;;;;;8382707;28;20235;-67
2022/09/27 16:56:21;;;;;;;2.67;1.50;;;10.40;99.90;;;;;;8383216;28;20191;-67
2022/09/27 17:00:22;;;;;;;2.10;1.63;;;10.20;99.90;;;;;;8381074;28;20217;-68
2022/09/27 17:04:24;;;;;;;2.17;1.20;;;10.10;99.90;;;;;;8357464;28;20199;-67
2022/09/27 17:08:25;;;;;;;2.07;1.50;;;10.00;99.90;;;;;;8380187;28;20195;-68
2022/09/27 17:12:26;;;;;;;2.73;1.77;;;10.00;99.90;;;;;;8373649;28;20215;-68
2022/09/27 17:16:30;;;;;;;2.57;1.90;;;10.10;99.90;;;;;;8382032;28;20204;-69
2022/09/27 17:20:31;;;;;;;3.23;2.07;;;10.10;99.90;;;;;;8381921;28;20210;-68
2022/09/27 17:24:33;;;;;;;3.17;1.70;;;10.10;99.90;;;;;;8364614;28;20190;-68
2022/09/27 17:28:35;;;;;;;2.50;1.90;;;10.00;99.90;;;;;;8380765;28;20189;-68
2022/09/27 17:32:37;;;;;;;3.67;2.13;;;9.90;99.90;;;;;;8380167;28;20190;-68
2022/09/27 17:36:46;;;;;;;3.00;2.13;;;9.80;99.90;;;;;;8379270;28;20210;-67
2022/09/27 17:40:47;;;;;;;3.47;2.50;;;9.70;99.90;;;;;;8374400;28;20213;-68
2022/09/27 17:44:48;;;;;;;7.00;2.60;;;9.60;99.90;;;;;;8378639;28;20193;-68
2022/09/27 17:53:09;;;;;;;4.47;2.40;;;9.50;99.90;;;;;;8381896;28;20254;-68
2022/09/27 17:57:10;;;;;;;4.47;2.80;;;9.50;99.90;;;;;;8381795;28;20185;-69
2022/09/27 18:01:11;;;;;;;4.00;2.57;;;9.40;99.90;;;;;;8378386;28;20300;-67
2022/09/27 18:05:12;;;;;;;4.33;2.40;;;9.30;99.90;;;;;;8384516;28;20181;-69
2022/09/27 18:09:18;;;;;;;3.83;2.40;;;9.10;99.90;;;;;;8380802;28;20246;-68
2022/09/27 18:13:20;;;;;;;2.43;2.07;;;9.00;99.90;;;;;;8380374;28;20274;-69
2022/09/27 18:17:21;;;;;;;3.30;2.47;;;8.90;99.90;;;;;;8378709;28;20181;-70
2022/09/27 18:21:22;;;;;;;3.47;2.30;;;8.70;99.90;;;;;;8380197;28;20243;-69
2022/09/27 18:25:23;;;;;;;2.90;2.20;;;8.60;99.90;;;;;;8380179;28;20272;-69
2022/09/27 18:29:27;;;;;;;3.90;2.50;;;8.40;99.90;;;;;;8379591;28;20211;-69
2022/09/27 18:33:28;;;;;;;5.53;2.80;;;8.30;99.90;;;;;;8379521;28;20250;-69
2022/09/27 18:37:29;;;;;;;4.07;2.63;;;8.30;99.90;;;;;;8386960;28;20615;-69
2022/09/27 18:41:33;;;;;;;5.43;3.03;;;8.20;99.90;;;;;;8384345;28;20209;-69
2022/09/27 18:45:37;;;;;;;5.73;3.70;;;8.20;99.90;;;;;;8384532;28;20186;-69
2022/09/27 18:49:38;;;;;;;5.97;4.10;;;8.10;99.90;;;;;;8383924;28;20200;-68
2022/09/27 18:53:39;;;;;;;6.37;5.03;;;8.10;99.90;;;;;;8381652;28;20181;-69
2022/09/27 18:57:40;;;;;;;6.57;4.43;;;8.10;99.90;;;;;;8386563;28;20197;-68
2022/09/27 19:01:44;;;;;;;7.47;4.73;;;8.20;99.90;;;;;;8385026;28;20213;-67
2022/09/27 19:05:54;;;;;;;7.93;4.90;;;8.30;99.90;;;;;;8384728;28;20189;-69
2022/09/27 19:09:55;;;;;;;8.77;4.77;;;8.30;99.90;;;;;;8384001;28;20185;-67
2022/09/27 19:13:57;;;;;;;6.73;5.03;;;8.30;99.90;;;;;;8387061;28;20219;-68
2022/09/27 19:17:58;;;;;;;6.77;5.13;;;8.40;99.90;;;;;;8383348;28;20182;-67
2022/09/27 19:21:59;;;;;;;6.43;4.90;;;8.40;99.90;;;;;;8377385;28;20235;-67
2022/09/27 19:26:01;;;;;;;6.90;4.67;;;8.30;99.90;;;;;;8387107;28;20176;-67
2022/09/27 19:30:04;;;;;;;6.60;4.30;;;8.20;99.90;;;;;;8386235;28;20177;-68
2022/09/27 19:34:04;;;;;;;8.40;4.37;;;8.10;99.90;;;;;;8391139;28;20181;-68
2022/09/27 19:38:05;;;;;;;6.43;4.53;;;8.00;99.90;;;;;;8386741;28;20338;-68
2022/09/27 19:42:06;;;;;;;6.33;4.73;;;7.80;99.90;;;;;;8382012;28;20278;-68
2022/09/27 19:46:19;;;;;;;6.83;5.03;;;7.70;99.90;;;;;;8398933;28;20189;-67
2022/09/27 19:50:20;;;;;;;6.23;4.53;;;7.70;99.90;;;;;;8383228;28;20185;-68
2022/09/27 19:54:21;;;;;;;7.30;5.30;;;7.60;99.90;;;;;;8382206;28;20182;-67
2022/09/27 19:58:22;;;;;;;6.10;4.67;;;7.60;99.90;;;;;;8381913;28;20296;-67
2022/09/27 20:02:23;;;;;;;7.60;4.87;;;7.50;99.90;;;;;;8382658;28;20216;-66
2022/09/27 20:06:24;;;;;;;6.80;4.80;;;7.40;99.90;;;;;;8381405;28;20188;-67
2022/09/27 20:10:25;;;;;;;6.83;4.43;;;7.40;99.90;;;;;;8380396;28;20181;-68
2022/09/27 20:14:26;;;;;;;5.73;4.40;;;7.30;99.90;;;;;;8380211;28;20224;-66
2022/09/27 20:18:27;;;;;;;7.10;4.90;;;7.30;99.90;;;;;;8381295;28;20243;-66
2022/09/27 20:22:31;;;;;;;6.03;4.77;;;7.20;99.90;;;;;;8384129;28;20280;-67
2022/09/27 20:26:35;;;;;;;5.70;4.13;;;7.10;99.90;;;;;;8377318;28;20237;-67
2022/09/27 20:30:36;;;;;;;8.13;5.13;;;7.00;99.90;;;;;;8381612;28;20196;-67
2022/09/27 20:34:36;;;;;;;6.63;3.97;;;7.00;99.90;;;;;;8384533;28;20185;-67
2022/09/27 20:38:42;;;;;;;5.60;4.20;;;6.90;99.90;;;;;;8384789;28;20245;-68
2022/09/27 20:42:43;;;;;;;5.10;4.13;;;6.80;99.90;;;;;;8379966;28;20174;-67
2022/09/27 20:46:45;;;;;;;4.77;3.27;;;6.70;99.90;;;;;;8379487;28;20185;-68
2022/09/27 20:50:46;;;;;;;4.67;3.40;;;6.60;99.90;;;;;;8384571;28;20188;-67
2022/09/27 20:54:47;;;;;;;4.60;3.33;;;6.60;99.90;;;;;;8381471;28;20190;-66
2022/09/27 20:58:50;;;;;;;5.23;4.27;;;6.50;99.90;;;;;;8381306;28;20211;-67
2022/09/27 21:02:51;;;;;;;5.23;3.83;;;6.50;99.90;;;;;;8375287;28;20174;-67
2022/09/27 21:06:52;;;;;;;6.87;4.40;;;6.40;99.90;;;;;;8379737;28;20495;-67
2022/09/27 21:10:53;;;;;;;6.17;4.43;;;6.50;99.90;;;;;;8382479;28;20180;-67
2022/09/27 21:14:54;;;;;;;6.83;4.50;;;6.50;99.90;;;;;;8382088;28;20284;-66
2022/09/27 21:18:57;;;;;;;6.07;4.30;;;6.60;99.90;;;;;;8384234;28;20531;-67
2022/09/27 21:22:58;;;;;;;7.33;4.00;;;6.70;99.90;;;;;;8379599;28;20184;-73
2022/09/27 21:26:59;;;;;;;4.60;3.40;;;6.70;99.90;;;;;;8378577;28;20263;-67
2022/09/27 21:31:05;;;;;;;6.13;3.60;;;6.70;99.90;;;;;;8379642;28;20177;-69
2022/09/27 21:35:06;;;;;;;3.97;3.03;;;6.70;99.90;;;;;;8394263;28;20185;-67
2022/09/27 21:39:08;;;;;;;6.63;3.57;;;6.80;99.90;;;;;;8379493;28;20200;-67